Time;durP1;ratioP1;P1;durP2;ratioP2;P2;SDS_P1;SDS_P2;PMS_P1;PMS_P2;Temp;Humidity;BMP_temperature;BMP_pressure;BME280_temperature;BME280_humidity;BME280_pressure;Samples;Min_cycle;Max_cycle;Signal;HPM_P1;HPM_P2
2022/08/12 00:45:08;;;;;;;1.00;0.60;;;;;;;-145.06;100.00;60892.56;4874215;28;20037;-88
2022/08/12 00:47:50;;;;;;;2.05;0.73;;;;;;;-145.06;100.00;60892.56;4869063;28;20021;-89
2022/08/12 00:50:30;;;;;;;0.77;0.50;;;;;;;-145.06;100.00;60892.56;4866556;28;20064;-89
2022/08/12 00:53:09;;;;;;;1.45;0.68;;;;;;;-145.06;100.00;60892.56;4876767;28;20052;-88
2022/08/12 00:55:54;;;;;;;0.70;0.70;;;;;;;-145.06;100.00;60892.56;4871358;28;20033;-88
2022/08/12 00:58:33;;;;;;;1.33;0.70;;;;;;;-145.06;100.00;60892.56;4871751;28;20041;-88
2022/08/12 01:01:13;;;;;;;1.65;0.70;;;;;;;-145.06;100.00;60892.56;4874646;28;20029;-90
2022/08/12 01:12:52;;;;;;;1.40;0.70;;;;;;;-145.06;100.00;60892.56;4870693;28;20061;-88
2022/08/12 01:15:31;;;;;;;1.17;0.63;;;;;;;-145.06;100.00;60892.56;4871292;28;20033;-88
2022/08/12 01:18:11;;;;;;;2.00;0.68;;;;;;;-145.06;100.00;60892.56;4871058;28;20029;-88
2022/08/12 01:21:16;;;;;;;0.98;0.70;;;;;;;-145.06;100.00;60892.56;4873143;28;20041;-90
2022/08/12 01:24:26;;;;;;;0.98;0.70;;;;;;;-145.06;100.00;60892.56;4873680;28;20029;-89
2022/08/12 01:27:08;;;;;;;2.80;0.60;;;;;;;-145.06;100.00;60892.56;4865558;28;20116;-88
2022/08/12 01:29:51;;;;;;;1.77;0.80;;;;;;;-145.06;100.00;60892.56;4873063;28;20028;-89
2022/08/12 01:32:36;;;;;;;1.48;0.80;;;;;;;-145.06;100.00;60892.56;4865217;28;20029;-88
2022/08/12 01:35:16;;;;;;;1.05;0.70;;;;;;;-145.06;100.00;60892.56;4872168;28;20646;-90
2022/08/12 01:38:04;;;;;;;0.90;0.70;;;;;;;-145.06;100.00;60892.56;4876965;28;20455;-89
2022/08/12 01:40:45;;;;;;;0.95;0.70;;;;;;;-145.06;100.00;60892.56;4873332;28;20075;-90
2022/08/12 01:43:25;;;;;;;1.27;0.60;;;;;;;-145.06;100.00;60892.56;4873503;28;20037;-89
2022/08/12 01:46:36;;;;;;;1.10;0.70;;;;;;;-145.06;100.00;60892.56;4869841;28;20030;-88
2022/08/12 01:49:36;;;;;;;0.90;0.63;;;;;;;-145.06;100.00;60892.56;4868337;28;20037;-88
2022/08/12 01:52:25;;;;;;;0.70;0.60;;;;;;;-145.06;100.00;60892.56;4871346;28;20036;-88
2022/08/12 01:55:06;;;;;;;1.48;0.90;;;;;;;-145.06;100.00;60892.56;4868523;28;20029;-88
2022/08/12 01:57:50;;;;;;;1.02;0.65;;;;;;;-145.06;100.00;60892.56;4875385;28;20040;-89
2022/08/12 02:00:43;;;;;;;1.23;0.63;;;;;;;-145.06;100.00;60892.56;4874896;28;20044;-88
2022/08/12 02:13:37;;;;;;;0.85;0.68;;;;;;;-145.06;100.00;60892.56;4876730;28;20036;-88
2022/08/12 02:16:30;;;;;;;1.23;0.68;;;;;;;-145.06;100.00;60892.56;4870381;28;20376;-89
2022/08/12 02:19:41;;;;;;;1.25;0.63;;;;;;;-145.06;100.00;60892.56;4865021;28;20045;-88
2022/08/12 02:22:27;;;;;;;0.50;0.45;;;;;;;-145.06;100.00;60892.56;4873132;28;20116;-89
2022/08/12 02:25:12;;;;;;;0.63;0.52;;;;;;;-145.06;100.00;60892.56;4874765;28;20032;-88
2022/08/12 02:27:53;;;;;;;1.08;0.60;;;;;;;-145.06;100.00;60892.56;4870545;28;20044;-88
2022/08/12 02:30:35;;;;;;;0.85;0.60;;;;;;;-145.06;100.00;60892.56;4872439;28;20364;-88
2022/08/12 02:33:16;;;;;;;1.33;0.70;;;;;;;-145.06;100.00;60892.56;4874795;28;20041;-88
2022/08/12 02:35:56;;;;;;;1.10;0.80;;;;;;;-145.06;100.00;60892.56;4872083;28;20486;-89
2022/08/12 02:38:36;;;;;;;0.95;0.60;;;;;;;-145.06;100.00;60892.56;4875352;28;20029;-89
2022/08/12 02:41:20;;;;;;;0.88;0.60;;;;;;;-145.06;100.00;60892.56;4880791;28;20029;-89
2022/08/12 02:44:03;;;;;;;0.80;0.65;;;;;;;-145.06;100.00;60892.56;4891591;28;20068;-89
2022/08/12 02:46:47;;;;;;;0.93;0.70;;;;;;;-145.06;100.00;60892.56;4893333;28;20033;-88
2022/08/12 02:49:33;;;;;;;0.80;0.60;;;;;;;-145.06;100.00;60892.56;4869596;28;20036;-89
2022/08/12 02:52:16;;;;;;;1.80;0.93;;;;;;;-145.06;100.00;60892.56;4874403;28;20359;-88
2022/08/12 02:55:02;;;;;;;0.80;0.73;;;;;;;-145.06;100.00;60892.56;4877001;28;20376;-89
2022/08/12 02:57:43;;;;;;;0.65;0.50;;;;;;;-145.06;100.00;60892.56;4867621;28;20025;-90
2022/08/12 03:00:23;;;;;;;0.93;0.65;;;;;;;-145.06;100.00;60892.56;4873905;28;20423;-89
2022/08/12 03:03:12;;;;;;;1.20;0.80;;;;;;;-145.06;100.00;60892.56;4871419;28;20364;-89
2022/08/12 03:05:58;;;;;;;0.85;0.70;;;;;;;-145.06;100.00;60892.56;4870119;28;20040;-88
2022/08/12 03:08:41;;;;;;;1.27;0.70;;;;;;;-145.06;100.00;60892.56;4867446;28;20084;-88
2022/08/12 03:11:30;;;;;;;0.73;0.70;;;;;;;-145.06;100.00;60892.56;4866688;28;20037;-88
2022/08/12 03:14:13;;;;;;;0.93;0.60;;;;;;;-145.06;100.00;60892.56;4871577;28;20562;-89
2022/08/12 03:17:08;;;;;;;0.77;0.60;;;;;;;-145.06;100.00;60892.56;4866104;28;20037;-88
2022/08/12 03:19:49;;;;;;;1.02;0.60;;;;;;;-145.06;100.00;60892.56;4872045;28;20040;-88
2022/08/12 03:22:30;;;;;;;1.00;0.80;;;;;;;-145.06;100.00;60892.56;4867514;28;20033;-89
2022/08/12 03:25:23;;;;;;;0.93;0.63;;;;;;;-145.06;100.00;60892.56;4872807;28;20033;-88
2022/08/12 03:28:04;;;;;;;0.90;0.60;;;;;;;-145.06;100.00;60892.56;4866551;28;20100;-86
2022/08/12 03:30:45;;;;;;;0.90;0.70;;;;;;;-145.06;100.00;60892.56;4863608;28;21714;-87
2022/08/12 03:33:25;;;;;;;1.65;0.93;;;;;;;-145.06;100.00;60892.56;4884834;28;20033;-85
2022/08/12 03:36:06;;;;;;;1.42;0.77;;;;;;;-145.06;100.00;60892.56;4870692;28;20033;-86
2022/08/12 03:38:59;;;;;;;1.33;0.70;;;;;;;-145.06;100.00;60892.56;4870169;28;20041;-87
2022/08/12 03:42:13;;;;;;;0.90;0.80;;;;;;;-145.06;100.00;60892.56;4869622;28;20036;-86
2022/08/12 04:02:59;;;;;;;1.15;0.80;;;;;;;-145.06;100.00;60892.56;4870671;28;20625;-86
2022/08/12 04:05:38;;;;;;;1.27;0.70;;;;;;;-145.06;100.00;60892.56;4869179;28;20836;-86
2022/08/12 04:08:22;;;;;;;2.25;0.95;;;;;;;-145.06;100.00;60892.56;4872992;28;20037;-87
2022/08/12 04:14:20;;;;;;;1.63;0.90;;;;;;;-145.06;100.00;60892.56;4866790;28;20021;-87
2022/08/12 04:17:01;;;;;;;1.73;1.15;;;;;;;-145.06;100.00;60892.56;4868431;28;20772;-88
2022/08/12 04:19:41;;;;;;;1.27;0.98;;;;;;;-145.06;100.00;60892.56;4877979;28;20451;-88
2022/08/12 04:22:21;;;;;;;1.50;0.80;;;;;;;-145.06;100.00;60892.56;4869781;28;20036;-86
2022/08/12 04:25:01;;;;;;;1.88;0.90;;;;;;;-145.06;100.00;60892.56;4868988;28;20029;-86
2022/08/12 04:27:43;;;;;;;;;;;;;;;-145.06;100.00;60892.56;4870766;28;20025;-88
2022/08/12 04:30:23;;;;;;;1.38;0.90;;;;;;;-145.06;100.00;60892.56;4866503;28;20485;-87
2022/08/12 04:33:02;;;;;;;2.10;0.85;;;;;;;-145.06;100.00;60892.56;4872926;28;20626;-87
2022/08/12 04:35:42;;;;;;;1.70;1.10;;;;;;;-145.06;100.00;60892.56;4870133;28;20498;-88
2022/08/12 04:38:22;;;;;;;1.20;0.90;;;;;;;-145.06;100.00;60892.56;4867198;28;20072;-88
2022/08/12 04:41:03;;;;;;;1.25;0.98;;;;;;;-145.06;100.00;60892.56;4877610;28;20193;-88
2022/08/12 04:43:42;;;;;;;1.00;0.90;;;;;;;-145.06;100.00;60892.56;4878460;28;20029;-86
2022/08/12 04:46:23;;;;;;;1.13;0.80;;;;;;;-145.06;100.00;60892.56;4872372;28;20060;-86
2022/08/12 04:49:03;;;;;;;1.25;0.88;;;;;;;-145.06;100.00;60892.56;4870096;28;20033;-85
2022/08/12 04:51:42;;;;;;;1.98;0.98;;;;;;;-145.06;100.00;60892.56;4871583;28;20033;-87
2022/08/12 04:54:22;;;;;;;1.58;0.93;;;;;;;-145.06;100.00;60892.56;4870213;28;20033;-86
2022/08/12 04:57:01;;;;;;;2.67;1.20;;;;;;;-145.06;100.00;60892.56;4870885;28;20025;-86
2022/08/12 04:59:40;;;;;;;1.52;0.90;;;;;;;-145.06;100.00;60892.56;4867680;28;20088;-87
2022/08/12 05:02:19;;;;;;;1.80;1.05;;;;;;;-145.06;100.00;60892.56;4872385;28;20032;-87
2022/08/12 05:05:00;;;;;;;1.48;0.98;;;;;;;-145.06;100.00;60892.56;4868722;28;20045;-85
2022/08/12 05:07:40;;;;;;;3.20;1.10;;;;;;;-145.06;100.00;60892.56;4873473;28;20372;-87
2022/08/12 05:10:22;;;;;;;1.63;0.93;;;;;;;-145.06;100.00;60892.56;4868687;28;20076;-87
2022/08/12 05:13:17;;;;;;;1.92;1.08;;;;;;;-145.06;100.00;60892.56;4870227;28;20069;-87
2022/08/12 05:15:56;;;;;;;1.20;0.82;;;;;;;-145.06;100.00;60892.56;4859600;28;20033;-87
2022/08/12 05:18:37;;;;;;;1.60;1.08;;;;;;;-145.06;100.00;60892.56;4873264;28;20486;-87
2022/08/12 05:21:16;;;;;;;1.90;1.00;;;;;;;-145.06;100.00;60892.56;4865642;28;20041;-88
2022/08/12 05:23:55;;;;;;;2.25;1.38;;;;;;;-145.06;100.00;60892.56;4869930;28;20033;-87
2022/08/12 05:26:35;;;;;;;1.63;1.00;;;;;;;-145.06;100.00;60892.56;4872936;28;20056;-87
2022/08/12 05:29:15;;;;;;;1.40;1.00;;;;;;;-145.06;100.00;60892.56;4860898;28;20319;-88
2022/08/12 05:31:55;;;;;;;2.17;1.08;;;;;;;-145.06;100.00;60892.56;4871183;28;20033;-88
2022/08/12 05:34:33;;;;;;;1.83;1.23;;;;;;;-145.06;100.00;60892.56;4871654;28;20029;-88
2022/08/12 05:37:13;;;;;;;2.40;1.23;;;;;;;-145.06;100.00;60892.56;4872930;28;20033;-88
2022/08/12 05:39:52;;;;;;;1.02;0.90;;;;;;;-145.06;100.00;60892.56;4867349;28;20116;-88
2022/08/12 05:42:31;;;;;;;2.35;1.00;;;;;;;-145.06;100.00;60892.56;4871207;28;20148;-89
2022/08/12 05:45:10;;;;;;;2.22;1.00;;;;;;;-145.06;100.00;60892.56;4874715;28;20028;-88
2022/08/12 05:47:49;;;;;;;0.85;0.70;;;;;;;-145.06;100.00;60892.56;4877580;28;20033;-88
2022/08/12 05:50:28;;;;;;;0.93;0.80;;;;;;;-145.06;100.00;60892.56;4869248;28;20679;-86
2022/08/12 05:53:08;;;;;;;1.07;0.80;;;;;;;-145.06;100.00;60892.56;4867538;28;20291;-86
2022/08/12 05:55:50;;;;;;;1.77;0.90;;;;;;;-145.06;100.00;60892.56;4881931;28;20021;-86
2022/08/12 05:58:29;;;;;;;0.98;0.70;;;;;;;-145.06;100.00;60892.56;4894709;28;20033;-86
2022/08/12 06:01:08;;;;;;;0.70;0.60;;;;;;;-145.06;100.00;60892.56;4873632;28;20033;-84
2022/08/12 06:03:47;;;;;;;1.30;0.77;;;;;;;-145.06;100.00;60892.56;4873603;28;20064;-87
2022/08/12 06:06:26;;;;;;;1.00;0.80;;;;;;;-145.06;100.00;60892.56;4862693;28;21228;-86
2022/08/12 06:09:08;;;;;;;1.30;0.75;;;;;;;-145.06;100.00;60892.56;4868638;28;20029;-86
2022/08/12 06:11:49;;;;;;;0.93;0.73;;;;;;;-145.06;100.00;60892.56;4857032;28;20041;-87
2022/08/12 06:14:29;;;;;;;1.00;0.80;;;;;;;-145.06;100.00;60892.56;4876369;28;20037;-87
2022/08/12 06:17:08;;;;;;;1.15;0.80;;;;;;;-145.06;100.00;60892.56;4870807;28;20032;-86
2022/08/12 06:19:47;;;;;;;0.85;0.60;;;;;;;-145.06;100.00;60892.56;4871078;28;20032;-86
2022/08/12 06:22:27;;;;;;;1.00;0.77;;;;;;;-145.06;100.00;60892.56;4862750;28;20037;-86
2022/08/12 06:25:06;;;;;;;0.75;0.70;;;;;;;-145.06;100.00;60892.56;4872657;28;20033;-88
2022/08/12 06:27:47;;;;;;;0.70;0.60;;;;;;;-145.06;100.00;60892.56;4869458;28;20032;-86
2022/08/12 06:30:28;;;;;;;0.80;0.60;;;;;;;-145.06;100.00;60892.56;4867372;28;20037;-87
2022/08/12 06:33:07;;;;;;;1.08;0.68;;;;;;;-145.06;100.00;60892.56;4865930;28;20196;-86
2022/08/12 06:35:48;;;;;;;1.63;0.60;;;;;;;-145.06;100.00;60892.56;4864633;28;20034;-88
2022/08/12 06:38:30;;;;;;;1.45;0.80;;;;;;;-145.06;100.00;60892.56;4864571;28;20116;-88
2022/08/12 06:44:19;;;;;;;0.65;0.57;;;;;;;-145.06;100.00;60892.56;4869859;28;20387;-86
2022/08/12 06:46:58;;;;;;;0.80;0.57;;;;;;;-145.06;100.00;60892.56;4866930;28;20524;-87
2022/08/12 06:49:37;;;;;;;0.50;0.40;;;;;;;-145.06;100.00;60892.56;4875071;28;20064;-87
2022/08/12 06:52:16;;;;;;;0.63;0.52;;;;;;;-145.06;100.00;60892.56;4869060;28;20037;-87
2022/08/12 06:54:57;;;;;;;0.43;0.43;;;;;;;-145.06;100.00;60892.56;4865926;28;20072;-87
2022/08/12 06:57:55;;;;;;;2.47;0.50;;;;;;;-145.06;100.00;60892.56;4872963;28;20060;-87
2022/08/12 07:00:34;;;;;;;0.70;0.60;;;;;;;-145.06;100.00;60892.56;4872138;28;20032;-87
2022/08/12 07:03:26;;;;;;;0.70;0.57;;;;;;;-145.06;100.00;60892.56;4871998;28;20032;-87
2022/08/12 07:06:10;;;;;;;0.77;0.60;;;;;;;-145.06;100.00;60892.56;4873439;28;20116;-87
2022/08/12 07:08:49;;;;;;;0.85;0.60;;;;;;;-145.06;100.00;60892.56;4866369;28;20061;-85
2022/08/12 07:11:29;;;;;;;0.37;0.30;;;;;;;-145.06;100.00;60892.56;4868101;28;20037;-88
2022/08/12 07:14:08;;;;;;;0.70;0.50;;;;;;;-145.06;100.00;60892.56;4879394;28;20029;-87
2022/08/12 07:16:56;;;;;;;0.93;0.60;;;;;;;-145.06;100.00;60892.56;4870096;28;20046;-88
2022/08/12 07:19:35;;;;;;;1.17;0.70;;;;;;;-145.06;100.00;60892.56;4864513;28;20041;-87
2022/08/12 07:22:15;;;;;;;0.70;0.60;;;;;;;-145.06;100.00;60892.56;4862153;28;20127;-88
2022/08/12 07:27:53;;;;;;;0.70;0.55;;;;;;;-145.06;100.00;60892.56;4875712;28;19916;-88
2022/08/12 07:30:36;;;;;;;0.55;0.40;;;;;;;-145.06;100.00;60892.56;4873782;28;20032;-89
2022/08/12 07:33:16;;;;;;;1.05;0.60;;;;;;;-145.06;100.00;60892.56;4863412;28;20025;-88
2022/08/12 07:36:01;;;;;;;0.50;0.40;;;;;;;-145.06;100.00;60892.56;4873043;28;20024;-88
2022/08/12 07:38:46;;;;;;;1.10;0.47;;;;;;;-145.06;100.00;60892.56;4877406;28;20021;-88
2022/08/12 07:41:29;;;;;;;0.63;0.50;;;;;;;-145.06;100.00;60892.56;4873009;28;20037;-89
2022/08/12 07:44:09;;;;;;;0.68;0.63;;;;;;;-145.06;100.00;60892.56;4865847;28;20064;-89
2022/08/12 07:46:48;;;;;;;0.70;0.60;;;;;;;-145.06;100.00;60892.56;4866004;28;20032;-89
2022/08/12 07:49:27;;;;;;;0.88;0.60;;;;;;;-145.06;100.00;60892.56;4882227;28;20018;-89
2022/08/12 07:52:06;;;;;;;0.60;0.50;;;;;;;-145.06;100.00;60892.56;4882724;28;20123;-90
2022/08/12 07:54:45;;;;;;;0.90;0.60;;;;;;;-145.06;100.00;60892.56;4866613;28;20036;-89
2022/08/12 07:57:25;;;;;;;0.93;0.63;;;;;;;-145.06;100.00;60892.56;4866506;28;20120;-88
2022/08/12 08:00:05;;;;;;;0.60;0.50;;;;;;;-145.06;100.00;60892.56;4866921;28;20475;-88
2022/08/12 08:02:44;;;;;;;1.05;0.70;;;;;;;-145.06;100.00;60892.56;4872786;28;20625;-88
2022/08/12 08:05:25;;;;;;;1.83;0.68;;;;;;;-145.06;100.00;60892.56;4871042;28;20475;-90
2022/08/12 08:08:12;;;;;;;1.00;0.70;;;;;;;-145.06;100.00;60892.56;4860794;28;20037;-89
2022/08/12 08:12:52;;;;;;;0.90;0.65;;;;;;;-145.06;100.00;60892.56;4862433;28;20120;-89
2022/08/12 08:13:54;;;;;;;0.80;0.60;;;;;;;-145.06;100.00;60892.56;4867730;28;20037;-89
2022/08/12 08:16:36;;;;;;;0.85;0.60;;;;;;;-145.06;100.00;60892.56;4872922;28;20029;-88
2022/08/12 08:19:22;;;;;;;0.65;0.50;;;;;;;-145.06;100.00;60892.56;4870855;28;20041;-90
2022/08/12 08:22:01;;;;;;;0.50;0.40;;;;;;;-145.06;100.00;60892.56;4871292;28;20032;-89
2022/08/12 08:24:40;;;;;;;0.88;0.70;;;;;;;-145.06;100.00;60892.56;4870895;28;20037;-91
2022/08/12 08:27:21;;;;;;;0.85;0.60;;;;;;;-145.06;100.00;60892.56;4872527;28;20029;-90
2022/08/12 08:30:01;;;;;;;0.75;0.52;;;;;;;-145.06;100.00;60892.56;4874155;28;20033;-88
2022/08/12 08:32:40;;;;;;;0.47;0.43;;;;;;;-145.06;100.00;60892.56;4866630;28;20037;-91
2022/08/12 08:35:21;;;;;;;0.80;0.60;;;;;;;-145.06;100.00;60892.56;4875765;28;20024;-90
2022/08/12 08:38:12;;;;;;;0.65;0.52;;;;;;;-145.06;100.00;60892.56;4873471;28;20036;-90
2022/08/12 08:43:49;;;;;;;0.52;0.50;;;;;;;-145.06;100.00;60892.56;4879233;28;20032;-90
2022/08/12 08:46:28;;;;;;;0.77;0.50;;;;;;;-145.06;100.00;60892.56;4868679;28;20605;-91
2022/08/12 08:49:08;;;;;;;0.65;0.55;;;;;;;-145.06;100.00;60892.56;4877290;28;20036;-91
2022/08/12 08:51:47;;;;;;;0.55;0.40;;;;;;;-145.06;100.00;60892.56;4884607;28;20033;-90
2022/08/12 08:54:30;;;;;;;0.50;0.40;;;;;;;-145.06;100.00;60892.56;4878099;28;20033;-90
2022/08/12 08:57:09;;;;;;;0.82;0.47;;;;;;;-145.06;100.00;60892.56;4869025;28;20033;-90
2022/08/12 08:59:49;;;;;;;;;;;;;;;-145.06;100.00;60892.56;4876730;28;20112;-89
2022/08/12 09:02:28;;;;;;;0.90;0.35;;;;;;;-145.06;100.00;60892.56;4873678;28;19908;-90
2022/08/12 09:05:07;;;;;;;0.82;0.40;;;;;;;-145.06;100.00;60892.56;4876813;28;20040;-91
2022/08/12 09:07:49;;;;;;;0.70;0.50;;;;;;;-145.06;100.00;60892.56;4878360;28;20028;-90
2022/08/12 09:10:29;;;;;;;0.43;0.32;;;;;;;-145.06;100.00;60892.56;4884114;28;20064;-92
2022/08/12 09:16:07;;;;;;;0.68;0.40;;;;;;;-145.06;100.00;60892.56;4871068;28;20220;-90
2022/08/12 09:18:47;;;;;;;0.60;0.50;;;;;;;-145.06;100.00;60892.56;4864303;28;20037;-91
2022/08/12 09:21:29;;;;;;;0.60;0.50;;;;;;;-145.06;100.00;60892.56;4874772;28;20092;-88
2022/08/12 09:24:08;;;;;;;1.30;0.32;;;;;;;-145.06;100.00;60892.56;4879112;28;20507;-88
2022/08/12 09:26:48;;;;;;;0.47;0.40;;;;;;;-145.06;100.00;60892.56;4878514;28;20024;-88
2022/08/12 09:29:28;;;;;;;0.55;0.40;;;;;;;-145.06;100.00;60892.56;4877617;28;20041;-90
2022/08/12 09:32:08;;;;;;;0.60;0.50;;;;;;;-145.06;100.00;60892.56;4879482;28;20025;-88
2022/08/12 09:34:47;;;;;;;0.68;0.50;;;;;;;-145.06;100.00;60892.56;4883440;28;20024;-88
2022/08/12 09:37:27;;;;;;;0.73;0.50;;;;;;;-145.06;100.00;60892.56;4884187;28;20029;-89
2022/08/12 09:40:07;;;;;;;0.60;0.47;;;;;;;-145.06;100.00;60892.56;4876718;28;20100;-87
2022/08/12 09:45:47;;;;;;;0.52;0.40;;;;;;;-145.06;100.00;60892.56;4876775;28;20116;-88
2022/08/12 09:48:27;;;;;;;0.40;0.40;;;;;;;-145.06;100.00;60892.56;4895860;28;20036;-88
2022/08/12 09:51:07;;;;;;;;;;;;;;;-145.06;100.00;60892.56;4882886;28;20029;-88
2022/08/12 09:53:46;;;;;;;0.88;0.40;;;;;;;-145.06;100.00;60892.56;4883141;28;19917;-88
2022/08/12 09:56:25;;;;;;;0.55;0.35;;;;;;;-145.06;100.00;60892.56;4883291;28;20367;-88
2022/08/12 09:59:08;;;;;;;0.40;0.35;;;;;;;-145.06;100.00;60892.56;4883481;28;20037;-89
2022/08/12 10:01:47;;;;;;;0.50;0.35;;;;;;;-145.06;100.00;60892.56;4878304;28;20029;-88
2022/08/12 10:04:26;;;;;;;0.30;0.30;;;;;;;-145.06;100.00;60892.56;4873292;28;20108;-88
2022/08/12 10:07:06;;;;;;;0.20;0.20;;;;;;;-145.06;100.00;60892.56;4877503;28;20033;-87
2022/08/12 10:09:44;;;;;;;0.50;0.40;;;;;;;-145.06;100.00;60892.56;4876622;28;20482;-88
2022/08/12 10:15:22;;;;;;;0.55;0.20;;;;;;;-145.06;100.00;60892.56;4876802;28;20041;-89
2022/08/12 10:18:01;;;;;;;0.40;0.30;;;;;;;-145.06;100.00;60892.56;4879014;28;20029;-88
2022/08/12 10:20:40;;;;;;;0.52;0.43;;;;;;;-145.06;100.00;60892.56;4877542;28;20427;-88
2022/08/12 10:23:20;;;;;;;0.52;0.40;;;;;;;-145.06;100.00;60892.56;4878738;28;20025;-90
2022/08/12 10:31:56;;;;;;;0.73;0.47;;;;;;;-145.06;100.00;60892.56;4882041;28;20780;-89
2022/08/12 10:34:35;;;;;;;0.65;0.47;;;;;;;-145.06;100.00;60892.56;4874957;28;20065;-87
2022/08/12 10:37:14;;;;;;;0.80;0.30;;;;;;;-145.06;100.00;60892.56;4874815;28;20025;-90
2022/08/12 10:39:53;;;;;;;0.40;0.38;;;;;;;-145.06;100.00;60892.56;4875744;28;20036;-88
2022/08/12 10:45:36;;;;;;;0.98;0.40;;;;;;;-145.06;100.00;60892.56;4874678;28;20499;-89
2022/08/12 10:48:15;;;;;;;0.60;0.40;;;;;;;31.04;100.00;60892.56;4869722;28;20629;-88
2022/08/12 10:50:55;;;;;;;0.45;0.32;;;;;;;-145.06;100.00;60892.56;4873490;28;20072;-88
2022/08/12 10:53:34;;;;;;;1.88;0.40;;;;;;;-145.06;100.00;60892.56;4869582;28;21523;-89
2022/08/12 10:56:17;;;;;;;0.70;0.30;;;;;;;-145.06;100.00;60892.56;4876628;28;20037;-88
2022/08/12 10:58:56;;;;;;;0.50;0.22;;;;;;;-145.06;100.00;60892.56;4881788;28;20029;-90
2022/08/12 11:01:36;;;;;;;2.42;0.30;;;;;;;-145.06;100.00;60892.56;4876053;28;20044;-89
2022/08/12 11:04:15;;;;;;;1.23;0.47;;;;;;;-145.06;100.00;60892.56;4872436;28;20048;-88
2022/08/12 11:06:55;;;;;;;0.22;0.22;;;;;;;-145.06;100.00;60892.56;4883623;28;20013;-89
2022/08/12 11:09:37;;;;;;;0.30;0.20;;;;;;;-145.06;100.00;60892.56;4893686;28;20029;-90
2022/08/12 11:12:19;;;;;;;0.57;0.30;;;;;;;-145.06;100.00;60892.56;4881557;28;20689;-89
2022/08/12 11:14:58;;;;;;;0.50;0.40;;;;;;;-145.06;100.00;60892.56;4872531;28;20041;-88
2022/08/12 11:17:39;;;;;;;0.25;0.20;;;;;;;-145.06;100.00;60892.56;4879963;28;20028;-87
2022/08/12 11:20:18;;;;;;;0.40;0.30;;;;;;;-145.06;100.00;60892.56;4875420;28;20509;-88
2022/08/12 11:23:00;;;;;;;0.30;0.30;;;;;;;-145.06;100.00;60892.56;4878562;28;20025;-87
2022/08/12 11:25:43;;;;;;;0.25;0.15;;;;;;;-145.06;100.00;60892.56;4870963;28;20032;-89
2022/08/12 11:28:22;;;;;;;0.30;0.30;;;;;;;-145.06;100.00;60892.56;4891053;28;20092;-90
2022/08/12 11:31:03;;;;;;;0.20;0.20;;;;;;;-145.06;100.00;60892.56;4870615;28;20108;-88
2022/08/12 11:33:42;;;;;;;0.30;0.20;;;;;;;-145.06;100.00;60892.56;4871774;28;20029;-89
2022/08/12 11:36:21;;;;;;;0.17;0.10;;;;;;;-145.06;100.00;60892.56;4871063;28;20037;-88
2022/08/12 11:39:00;;;;;;;;;;;;;;;-145.06;100.00;60892.56;4880978;28;20028;-89
2022/08/12 11:41:39;;;;;;;1.10;0.40;;;;;;;-145.06;100.00;60892.56;4874101;28;20243;-89
2022/08/12 11:44:18;;;;;;;0.20;0.20;;;;;;;-145.06;100.00;60892.56;4876326;28;20044;-88
2022/08/12 11:46:58;;;;;;;0.20;0.20;;;;;;;-145.06;100.00;60892.56;4877056;28;20060;-88
2022/08/12 11:49:37;;;;;;;0.40;0.20;;;;;;;-145.06;100.00;60892.56;4871837;28;20028;-88
2022/08/12 11:52:16;;;;;;;0.22;0.20;;;;;;;-145.06;100.00;60892.56;4875877;28;20028;-88
2022/08/12 11:54:55;;;;;;;;;;;;;;;-145.06;100.00;60892.56;4873357;28;20498;-88
2022/08/12 11:57:45;;;;;;;;;;;;;;;-145.06;100.00;60892.56;4881062;28;19920;-89
2022/08/12 12:00:25;;;;;;;0.60;0.38;;;;;;;-145.06;100.00;60892.56;4869096;28;20008;-89
2022/08/12 12:03:05;;;;;;;0.10;0.10;;;;;;;-145.06;100.00;60892.56;4867828;28;20119;-88
2022/08/12 12:05:44;;;;;;;0.68;0.20;;;;;;;-145.06;100.00;60892.56;4869009;28;20116;-90
2022/08/12 12:08:24;;;;;;;0.20;0.10;;;;;;;-145.06;100.00;60892.56;4869525;28;20037;-90
2022/08/12 12:11:04;;;;;;;0.30;0.10;;;;;;;-145.06;100.00;60892.56;4870783;28;20021;-89
2022/08/12 12:13:43;;;;;;;0.17;0.17;;;;;;;-145.06;100.00;60892.56;4868821;28;20025;-90
2022/08/12 12:16:23;;;;;;;0.20;0.20;;;;;;;-145.06;100.00;60892.56;4871972;28;20120;-88
2022/08/12 12:19:04;;;;;;;0.20;0.20;;;;;;;-145.06;100.00;60892.56;4859724;28;20041;-88
2022/08/12 12:21:43;;;;;;;0.30;0.20;;;;;;;-145.06;100.00;60892.56;4871807;28;20041;-89
2022/08/12 12:24:22;;;;;;;0.20;0.20;;;;;;;-145.06;100.00;60892.56;4868773;28;20123;-89
2022/08/12 12:27:02;;;;;;;;;;;;;;;-145.06;100.00;60892.56;4873835;28;20713;-90
2022/08/12 12:29:41;;;;;;;0.35;0.25;;;;;;;-145.06;100.00;60892.56;4872437;28;19916;-88
2022/08/12 12:32:20;;;;;;;0.20;0.20;;;;;;;-145.06;100.00;60892.56;4865818;28;20033;-90
2022/08/12 12:34:59;;;;;;;;;;;;;;;-145.06;100.00;60892.56;4866030;28;20037;-88
2022/08/12 12:37:51;;;;;;;0.10;0.10;;;;;;;-145.06;100.00;60892.56;4875519;28;19921;-91
2022/08/12 12:40:32;;;;;;;2.15;0.20;;;;;;;-145.06;100.00;60892.56;4870462;28;20025;-88
2022/08/12 12:43:13;;;;;;;0.30;0.10;;;;;;;-145.06;100.00;60892.56;4872788;28;20040;-89
2022/08/12 12:45:51;;;;;;;0.30;0.20;;;;;;;-145.06;100.00;60892.56;4871559;28;20100;-89
2022/08/12 12:48:31;;;;;;;0.10;0.10;;;;;;;-145.06;100.00;60892.56;4852002;28;20042;-88
2022/08/12 12:51:16;;;;;;;0.10;0.10;;;;;;;-145.06;100.00;60892.56;4832764;28;20049;-89
2022/08/12 12:53:56;;;;;;;0.10;0.10;;;;;;;-145.06;100.00;60892.56;4827435;28;20037;-89
2022/08/12 12:56:40;;;;;;;0.30;0.20;;;;;;;-145.06;100.00;60892.56;4829461;28;20049;-89
2022/08/12 12:59:22;;;;;;;0.30;0.20;;;;;;;-145.06;100.00;60892.56;4827761;28;20046;-88
2022/08/12 13:02:05;;;;;;;0.30;0.10;;;;;;;-145.06;100.00;60892.56;4826933;28;20129;-89
2022/08/12 13:04:44;;;;;;;0.30;0.20;;;;;;;-145.06;100.00;60892.56;4829305;28;20038;-88
2022/08/12 13:07:23;;;;;;;;;;;;;;;-145.06;100.00;60892.56;4830736;28;20049;-88
2022/08/12 13:10:03;;;;;;;0.10;0.10;;;;;;;-145.06;100.00;60892.56;4835798;28;20387;-88
2022/08/12 13:12:42;;;;;;;0.20;0.20;;;;;;;-145.06;100.00;60892.56;4856905;28;20065;-88
2022/08/12 13:15:21;;;;;;;0.20;0.10;;;;;;;-145.06;100.00;60892.56;4821268;28;20045;-88
2022/08/12 13:18:04;;;;;;;0.10;0.10;;;;;;;-145.06;100.00;60892.56;4836942;28;20057;-89
2022/08/12 13:20:47;;;;;;;0.20;0.20;;;;;;;-145.06;100.00;60892.56;4832263;28;20029;-89
2022/08/12 13:23:26;;;;;;;0.10;0.10;;;;;;;-145.06;100.00;60892.56;4836156;28;20033;-88
2022/08/12 13:26:06;;;;;;;;;;;;;;;-145.06;100.00;60892.56;4828649;28;20140;-88
2022/08/12 13:28:52;;;;;;;0.25;0.10;;;;;;;-145.06;100.00;60892.56;4824134;28;19921;-88
2022/08/12 13:31:31;;;;;;;0.17;0.08;;;;;;;-145.06;100.00;60892.56;4832397;28;20038;-88
2022/08/12 13:34:11;;;;;;;0.20;0.20;;;;;;;-145.06;100.00;60892.56;4833655;28;20022;-89
2022/08/12 13:36:51;;;;;;;1.02;0.17;;;;;;;-145.06;100.00;60892.56;4831050;28;20030;-90
2022/08/12 13:39:32;;;;;;;0.20;0.20;;;;;;;-145.06;100.00;60892.56;4835410;28;20053;-90
2022/08/12 13:42:12;;;;;;;0.10;0.10;;;;;;;-145.06;100.00;60892.56;4831259;28;20076;-88
2022/08/12 13:44:52;;;;;;;0.20;0.20;;;;;;;-145.06;100.00;60892.56;4819031;28;20039;-90
2022/08/12 13:48:02;;;;;;;0.20;0.10;;;;;;;-145.06;100.00;60892.56;4830831;28;20022;-88
2022/08/12 13:50:42;;;;;;;0.20;0.20;;;;;;;-145.06;100.00;60892.56;4825491;28;20042;-88
2022/08/12 13:53:21;;;;;;;0.57;0.30;;;;;;;-145.06;100.00;60892.56;4833753;28;20495;-89
2022/08/12 13:55:59;;;;;;;;;;;;;;;-145.06;100.00;60892.56;4826069;28;20038;-89
2022/08/12 13:58:43;;;;;;;;;;;;;;;-145.06;100.00;60892.56;4832968;28;19922;-88
2022/08/12 14:01:22;;;;;;;0.10;0.10;;;;;;;-145.06;100.00;60892.56;4841849;28;19917;-88
2022/08/12 14:04:03;;;;;;;0.20;0.10;;;;;;;-145.06;100.00;60892.56;4833052;28;20033;-89
2022/08/12 14:06:42;;;;;;;0.15;0.10;;;;;;;-145.06;100.00;60892.56;4828718;28;20026;-89
2022/08/12 14:09:21;;;;;;;0.70;0.20;;;;;;;-145.06;100.00;60892.56;4831927;28;20034;-86